createdAt,value
2022-12-18T00:01:27.139Z,42.30
2022-12-18T00:03:56.230Z,38.60
2022-12-18T00:06:25.959Z,37.60
2022-12-18T00:08:53.997Z,37.80
2022-12-18T00:11:24.389Z,38.03
2022-12-18T00:13:52.280Z,37.35
2022-12-18T00:16:21.995Z,38.08
2022-12-18T00:18:50.594Z,36.33
2022-12-18T00:21:17.949Z,37.50
2022-12-18T00:23:46.024Z,37.17
2022-12-18T00:26:16.862Z,33.47
2022-12-18T00:28:44.685Z,38.28
2022-12-18T00:31:16.420Z,36.88
2022-12-18T00:33:44.412Z,35.20
2022-12-18T00:36:18.890Z,36.33
2022-12-18T00:38:47.305Z,36.38
2022-12-18T00:41:36.680Z,34.58
2022-12-18T00:44:07.450Z,34.63
2022-12-18T00:46:34.817Z,37.40
2022-12-18T00:49:02.579Z,33.13
2022-12-18T00:51:29.843Z,33.40
2022-12-18T00:53:57.301Z,33.17
2022-12-18T00:56:25.358Z,36.35
2022-12-18T00:58:53.936Z,35.25
2022-12-18T01:01:21.522Z,30.77
2022-12-18T01:03:49.395Z,31.42
2022-12-18T01:06:18.180Z,29.98
2022-12-18T01:08:45.790Z,30.60
2022-12-18T01:11:19.973Z,31.20
2022-12-18T01:13:47.415Z,32.33
2022-12-18T01:16:17.280Z,30.35
2022-12-18T01:18:44.746Z,32.53
2022-12-18T01:21:17.258Z,31.05
2022-12-18T01:23:44.608Z,30.20
2022-12-18T01:26:15.727Z,32.13
2022-12-18T01:28:44.711Z,30.27
2022-12-18T01:31:18.212Z,31.52
2022-12-18T01:33:46.482Z,30.50
2022-12-18T01:36:17.534Z,32.63
2022-12-18T01:38:45.556Z,33.70
2022-12-18T01:41:12.996Z,31.50
2022-12-18T01:43:51.101Z,32.00
2022-12-18T01:46:21.477Z,30.48
2022-12-18T01:48:58.836Z,30.97
2022-12-18T01:51:30.045Z,30.48
2022-12-18T01:53:58.712Z,22.83
2022-12-18T01:56:26.132Z,31.38
2022-12-18T01:59:02.557Z,29.55
2022-12-18T02:01:32.417Z,32.55
2022-12-18T02:04:21.863Z,32.10
2022-12-18T02:06:55.765Z,33.50
2022-12-18T02:09:33.285Z,33.83
2022-12-18T02:12:03.918Z,31.42
2022-12-18T02:17:10.571Z,33.15
2022-12-18T02:20:03.992Z,32.72
2022-12-18T02:22:38.999Z,32.90
2022-12-18T02:25:43.784Z,32.00
2022-12-18T02:28:16.654Z,33.08
2022-12-18T02:30:48.790Z,33.80
2022-12-18T02:33:17.925Z,32.25
2022-12-18T02:35:46.910Z,32.40
2022-12-18T02:38:16.567Z,32.15
2022-12-18T02:40:47.467Z,31.45
2022-12-18T02:43:17.805Z,33.90
2022-12-18T02:45:52.922Z,35.13
2022-12-18T02:48:25.760Z,32.90
2022-12-18T02:51:15.088Z,32.15
2022-12-18T02:53:51.407Z,31.30
2022-12-18T02:56:29.486Z,33.13
2022-12-18T02:59:04.647Z,35.60
2022-12-18T03:02:10.806Z,32.90
2022-12-18T03:04:51.126Z,35.03
2022-12-18T03:07:35.889Z,36.20
2022-12-18T03:10:06.473Z,36.90
2022-12-18T03:12:39.021Z,39.73
2022-12-18T03:15:20.956Z,38.28
2022-12-18T03:18:03.885Z,36.80
2022-12-18T03:20:35.310Z,39.00
2022-12-18T03:23:10.504Z,37.83
2022-12-18T03:25:43.527Z,38.45
2022-12-18T03:28:20.829Z,39.53
2022-12-18T03:30:52.800Z,39.92
2022-12-18T03:33:39.447Z,36.85
2022-12-18T03:36:07.518Z,37.47
2022-12-18T03:38:34.922Z,36.95
2022-12-18T03:41:21.154Z,38.00
2022-12-18T03:44:54.995Z,36.28
2022-12-18T03:47:35.922Z,34.80
2022-12-18T03:50:12.460Z,39.28
2022-12-18T03:52:55.989Z,36.97
2022-12-18T03:55:27.249Z,34.30
2022-12-18T03:58:02.665Z,34.58
2022-12-18T04:00:40.648Z,34.60
2022-12-18T04:03:13.894Z,36.38
2022-12-18T04:05:52.359Z,34.20
2022-12-18T04:08:23.407Z,35.35
2022-12-18T04:11:03.272Z,36.28
2022-12-18T04:13:36.638Z,35.72
2022-12-18T04:16:08.086Z,34.08
2022-12-18T04:18:36.030Z,35.65
2022-12-18T04:21:03.887Z,38.97
2022-12-18T04:23:34.053Z,34.65
2022-12-18T04:26:02.529Z,36.58
2022-12-18T04:28:58.209Z,39.13
2022-12-18T04:31:25.776Z,36.58
2022-12-18T04:33:53.718Z,36.20
2022-12-18T04:36:21.536Z,34.88
2022-12-18T04:38:48.999Z,34.85
2022-12-18T04:41:19.006Z,35.08
2022-12-18T04:43:48.627Z,39.55
2022-12-18T04:46:15.981Z,34.50
2022-12-18T04:48:43.241Z,34.40
2022-12-18T04:51:10.786Z,34.42
2022-12-18T04:53:39.987Z,32.50
2022-12-18T04:56:12.460Z,35.00
2022-12-18T04:58:41.682Z,32.60
2022-12-18T05:01:09.399Z,31.65
2022-12-18T05:03:38.114Z,31.55
2022-12-18T05:06:07.774Z,29.83
2022-12-18T05:08:35.142Z,29.67
2022-12-18T05:11:16.623Z,29.98
2022-12-18T05:13:45.472Z,28.92
2022-12-18T05:16:14.228Z,28.05
2022-12-18T05:18:41.897Z,28.13
2022-12-18T05:21:09.383Z,25.48
2022-12-18T05:23:37.211Z,27.70
2022-12-18T05:26:07.093Z,24.98
2022-12-18T05:28:36.067Z,25.33
2022-12-18T05:31:05.555Z,26.60
2022-12-18T05:33:35.139Z,24.85
2022-12-18T05:36:07.060Z,26.83
2022-12-18T05:38:37.064Z,24.08
2022-12-18T05:41:05.776Z,23.70
2022-12-18T05:43:36.863Z,24.42
2022-12-18T05:46:13.205Z,25.15
2022-12-18T05:48:40.844Z,24.38
2022-12-18T05:51:10.882Z,23.92
2022-12-18T05:53:39.139Z,22.15
2022-12-18T05:56:10.102Z,22.98
2022-12-18T05:58:38.267Z,23.15
2022-12-18T06:01:14.655Z,23.45
2022-12-18T06:03:42.691Z,24.02
2022-12-18T06:06:18.354Z,23.65
2022-12-18T06:08:46.617Z,22.52
2022-12-18T06:11:17.277Z,23.55
2022-12-18T06:13:44.720Z,23.75
2022-12-18T06:16:12.049Z,23.00
2022-12-18T06:18:39.573Z,22.60
2022-12-18T06:21:07.138Z,22.85
2022-12-18T06:23:34.461Z,23.88
2022-12-18T06:26:06.772Z,22.42
2022-12-18T06:28:34.358Z,22.77
2022-12-18T06:31:01.879Z,23.73
2022-12-18T06:33:29.189Z,23.67
2022-12-18T06:36:02.733Z,21.70
2022-12-18T06:38:30.034Z,21.35
2022-12-18T06:40:57.875Z,23.60
2022-12-18T06:43:25.656Z,22.65
2022-12-18T06:45:59.884Z,22.65
2022-12-18T06:48:27.471Z,20.98
2022-12-18T06:50:54.797Z,20.95
2022-12-18T06:53:22.235Z,21.40
2022-12-18T06:55:50.018Z,19.98
2022-12-18T06:58:17.244Z,21.30
2022-12-18T07:00:44.668Z,20.00
2022-12-18T07:03:13.270Z,21.10
2022-12-18T07:05:41.953Z,21.27
2022-12-18T07:08:09.430Z,19.92
2022-12-18T07:10:46.960Z,20.77
2022-12-18T07:13:19.563Z,19.45
2022-12-18T07:15:46.896Z,19.92
2022-12-18T07:18:14.157Z,19.05
2022-12-18T07:20:41.849Z,18.23
2022-12-18T07:23:09.207Z,19.48
2022-12-18T07:25:38.011Z,19.88
2022-12-18T07:28:05.693Z,19.08
2022-12-18T07:30:32.994Z,19.60
2022-12-18T07:33:00.196Z,18.48
2022-12-18T07:35:27.455Z,18.95
2022-12-18T07:37:54.717Z,18.83
2022-12-18T07:40:21.983Z,18.90
2022-12-18T07:42:49.371Z,19.10
2022-12-18T07:45:16.785Z,18.77
2022-12-18T07:47:44.266Z,17.95
2022-12-18T07:50:12.817Z,18.25
2022-12-18T07:52:40.098Z,18.70
2022-12-18T07:55:07.735Z,17.15
2022-12-18T07:57:50.223Z,20.08
2022-12-18T08:00:18.461Z,16.60
2022-12-18T08:02:45.855Z,18.30
2022-12-18T08:05:14.378Z,17.83
2022-12-18T08:07:41.605Z,16.67
2022-12-18T08:10:09.506Z,16.73
2022-12-18T08:12:36.744Z,17.65
2022-12-18T08:15:05.490Z,15.98
2022-12-18T08:17:34.062Z,17.30
2022-12-18T08:20:02.161Z,18.25
2022-12-18T08:22:29.404Z,16.80
2022-12-18T08:24:56.708Z,16.48
2022-12-18T08:27:31.217Z,16.45
2022-12-18T08:29:58.729Z,17.33
2022-12-18T08:32:27.505Z,17.13
2022-12-18T08:34:54.836Z,17.20
2022-12-18T08:37:22.095Z,16.67
2022-12-18T08:39:49.597Z,17.10
2022-12-18T08:42:35.756Z,18.25
2022-12-18T08:45:04.533Z,17.10
2022-12-18T08:47:31.798Z,16.65
2022-12-18T08:49:59.092Z,17.48
2022-12-18T08:52:26.561Z,15.27
2022-12-18T08:54:54.020Z,15.68
2022-12-18T08:57:21.354Z,14.48
2022-12-18T08:59:49.361Z,15.80
2022-12-18T09:02:16.755Z,15.50
2022-12-18T09:04:46.405Z,14.77
2022-12-18T09:07:14.163Z,16.10
2022-12-18T09:09:41.375Z,15.05
2022-12-18T09:12:10.287Z,13.75
2022-12-18T09:14:37.729Z,14.00
2022-12-18T09:17:05.351Z,14.38
2022-12-18T09:19:32.727Z,14.40
2022-12-18T09:22:01.744Z,14.52
2022-12-18T09:24:29.043Z,13.70
2022-12-18T09:26:58.051Z,13.98
2022-12-18T09:29:25.635Z,14.63
2022-12-18T09:31:52.926Z,13.77
2022-12-18T09:34:23.222Z,13.02
2022-12-18T09:36:51.293Z,13.38
2022-12-18T09:39:18.602Z,13.15
2022-12-18T09:41:58.366Z,12.52
2022-12-18T09:44:44.450Z,12.43
2022-12-18T09:47:29.251Z,13.50
2022-12-18T09:50:00.884Z,13.10
2022-12-18T09:52:34.404Z,12.93
2022-12-18T09:55:10.499Z,13.60
2022-12-18T09:57:43.875Z,13.13
2022-12-18T10:00:21.925Z,10.95
2022-12-18T10:02:52.067Z,11.57
2022-12-18T10:05:37.720Z,10.82
2022-12-18T10:08:17.248Z,12.02
2022-12-18T10:10:55.800Z,8.17
2022-12-18T10:13:43.082Z,11.45
2022-12-18T10:16:14.308Z,10.32
2022-12-18T10:19:08.266Z,10.13
2022-12-18T10:21:57.459Z,9.45
2022-12-18T10:24:32.192Z,9.57
2022-12-18T10:27:11.822Z,9.38
2022-12-18T10:29:39.418Z,8.77
2022-12-18T10:32:08.492Z,8.93
2022-12-18T10:34:36.215Z,7.90
2022-12-18T10:37:14.113Z,8.60
2022-12-18T10:39:41.358Z,8.70
2022-12-18T10:42:14.179Z,8.55
2022-12-18T10:44:41.993Z,8.63
2022-12-18T10:47:16.324Z,8.80
2022-12-18T10:49:50.783Z,8.57
2022-12-18T10:52:26.794Z,7.65
2022-12-18T10:55:05.699Z,8.18
2022-12-18T10:57:40.180Z,7.20
2022-12-18T11:00:24.566Z,7.47
2022-12-18T11:02:53.002Z,7.30
2022-12-18T11:05:32.674Z,7.55
2022-12-18T11:08:01.795Z,8.38
2022-12-18T11:10:38.970Z,7.85
2022-12-18T11:13:25.022Z,7.93
2022-12-18T11:15:53.162Z,8.40
2022-12-18T11:18:31.100Z,8.60
2022-12-18T11:21:25.814Z,8.05
2022-12-18T11:23:54.809Z,7.95
2022-12-18T11:26:34.291Z,8.60
2022-12-18T11:29:17.997Z,7.78
2022-12-18T11:31:45.690Z,8.05
2022-12-18T11:34:30.892Z,7.82
2022-12-18T11:37:00.752Z,8.05
2022-12-18T11:39:41.696Z,5.82
2022-12-18T11:44:51.102Z,7.22
2022-12-18T11:47:27.934Z,7.97
2022-12-18T11:49:58.010Z,6.50
2022-12-18T11:52:32.776Z,6.70
2022-12-18T11:55:02.376Z,6.80
2022-12-18T11:57:48.726Z,6.70
2022-12-18T12:00:23.669Z,6.22
2022-12-18T12:03:18.420Z,6.35
2022-12-18T12:05:46.702Z,6.60
2022-12-18T12:09:06.907Z,6.65
2022-12-18T12:12:09.879Z,6.00
2022-12-18T12:14:49.224Z,6.03
2022-12-18T12:17:46.035Z,6.18
2022-12-18T12:20:36.621Z,6.35
2022-12-18T12:23:11.671Z,6.65
2022-12-18T12:25:51.498Z,7.00
2022-12-18T12:28:55.711Z,6.43
2022-12-18T12:31:52.012Z,6.22
2022-12-18T12:34:56.188Z,6.78
2022-12-18T12:37:47.279Z,6.50
2022-12-18T12:40:50.334Z,6.47
2022-12-18T12:43:33.994Z,6.60
2022-12-18T12:46:05.945Z,6.57
2022-12-18T12:48:50.713Z,6.40
2022-12-18T12:51:29.304Z,6.60
2022-12-18T12:53:59.109Z,7.05
2022-12-18T12:56:40.965Z,6.60
2022-12-18T12:59:15.199Z,7.10
2022-12-18T13:02:27.840Z,6.63
2022-12-18T13:05:03.049Z,6.40
2022-12-18T13:08:07.082Z,6.22
2022-12-18T13:10:38.152Z,6.20
2022-12-18T13:13:10.507Z,6.45
2022-12-18T13:15:43.988Z,6.57
2022-12-18T13:18:11.471Z,6.53
2022-12-18T13:20:43.085Z,6.47
2022-12-18T13:23:29.366Z,7.35
2022-12-18T13:25:57.624Z,6.40
2022-12-18T13:28:47.635Z,6.38
2022-12-18T13:31:40.079Z,7.53
2022-12-18T13:34:26.300Z,7.47
2022-12-18T13:36:56.079Z,6.45
2022-12-18T13:39:34.869Z,6.80
2022-12-18T13:42:06.179Z,6.90
2022-12-18T13:47:34.858Z,6.70
2022-12-18T13:50:19.090Z,7.18
2022-12-18T13:52:47.559Z,11.13
2022-12-18T13:55:20.902Z,7.07
2022-12-18T13:57:48.908Z,8.00
2022-12-18T14:00:29.709Z,8.38
2022-12-18T14:02:59.296Z,8.05
2022-12-18T14:05:30.938Z,7.85
2022-12-18T14:08:12.621Z,7.45
2022-12-18T14:10:49.996Z,7.88
2022-12-18T14:13:29.108Z,7.53
2022-12-18T14:15:59.032Z,7.80
2022-12-18T14:18:39.798Z,7.72
2022-12-18T14:21:16.586Z,9.18
2022-12-18T14:23:44.318Z,9.60
2022-12-18T14:26:31.813Z,8.68
2022-12-18T14:29:19.971Z,8.00
2022-12-18T14:32:07.643Z,7.82
2022-12-18T14:34:38.120Z,7.18
2022-12-18T14:37:08.111Z,7.78
2022-12-18T14:39:35.337Z,9.23
2022-12-18T14:42:02.630Z,8.68
2022-12-18T14:44:39.072Z,8.30
2022-12-18T14:47:18.733Z,7.88
2022-12-18T14:49:46.105Z,8.73
2022-12-18T14:52:30.323Z,7.20
2022-12-18T14:54:57.794Z,7.68
2022-12-18T14:57:31.490Z,7.82
2022-12-18T15:00:18.315Z,9.50
2022-12-18T15:02:57.224Z,12.15
2022-12-18T15:05:32.562Z,10.80
2022-12-18T15:08:01.689Z,8.00
2022-12-18T15:10:33.418Z,8.23
2022-12-18T15:13:01.478Z,7.88
2022-12-18T15:15:35.363Z,8.75
2022-12-18T15:18:08.993Z,8.52
2022-12-18T15:20:52.774Z,7.50
2022-12-18T15:23:24.419Z,7.75
2022-12-18T15:26:03.877Z,7.90
2022-12-18T15:28:51.170Z,7.40
2022-12-18T15:31:41.654Z,7.10
2022-12-18T15:34:08.841Z,7.22
2022-12-18T15:36:37.485Z,7.85
2022-12-18T15:39:06.837Z,8.18
2022-12-18T15:41:36.652Z,8.23
2022-12-18T15:44:25.725Z,6.72
2022-12-18T15:46:52.992Z,9.40
2022-12-18T15:49:20.339Z,7.43
2022-12-18T15:52:00.285Z,8.07
2022-12-18T15:54:46.422Z,6.00
2022-12-18T15:57:25.602Z,7.80
2022-12-18T15:59:56.206Z,6.85
2022-12-18T16:02:23.978Z,7.13
2022-12-18T16:04:53.269Z,7.22
2022-12-18T16:07:25.266Z,7.95
2022-12-18T16:09:53.376Z,6.70
2022-12-18T16:12:23.663Z,7.68
2022-12-18T16:14:51.110Z,6.65
2022-12-18T16:17:18.869Z,7.70
2022-12-18T16:19:46.108Z,9.07
2022-12-18T16:22:24.885Z,16.40
2022-12-18T16:24:53.977Z,8.00
2022-12-18T16:27:22.317Z,8.43
2022-12-18T16:29:51.099Z,7.00
2022-12-18T16:32:20.843Z,7.82
2022-12-18T16:34:48.495Z,6.57
2022-12-18T16:37:16.878Z,7.53
2022-12-18T16:39:44.537Z,6.90
2022-12-18T16:42:20.473Z,6.15
2022-12-18T16:44:49.709Z,6.53
2022-12-18T16:47:17.957Z,6.20
2022-12-18T16:49:51.655Z,6.60
2022-12-18T16:52:20.119Z,6.43
2022-12-18T16:54:47.933Z,7.68
2022-12-18T16:57:18.414Z,7.00
2022-12-18T16:59:46.733Z,7.00
2022-12-18T17:02:25.967Z,6.93
2022-12-18T17:04:57.342Z,8.10
2022-12-18T17:07:25.756Z,6.63
2022-12-18T17:09:54.260Z,7.38
2022-12-18T17:12:22.136Z,6.82
2022-12-18T17:14:49.793Z,6.80
2022-12-18T17:17:22.582Z,7.25
2022-12-18T17:19:52.117Z,6.50
2022-12-18T17:22:20.713Z,7.00
2022-12-18T17:24:48.104Z,6.78
2022-12-18T17:27:15.728Z,6.20
2022-12-18T17:29:47.334Z,7.78
2022-12-18T17:32:16.749Z,7.38
2022-12-18T17:34:44.063Z,6.55
2022-12-18T17:37:11.826Z,6.97
2022-12-18T17:39:39.825Z,7.32
2022-12-18T17:42:07.834Z,6.78
2022-12-18T17:47:06.139Z,5.90
2022-12-18T17:49:33.480Z,6.15
2022-12-18T17:52:00.729Z,5.75
2022-12-18T17:54:27.962Z,6.18
2022-12-18T17:56:55.163Z,5.60
2022-12-18T17:59:22.709Z,5.93
2022-12-18T18:01:50.313Z,6.60
2022-12-18T18:04:17.769Z,6.53
2022-12-18T18:06:45.321Z,5.90
2022-12-18T18:09:16.789Z,5.45
2022-12-18T18:12:06.310Z,6.22
2022-12-18T18:14:33.671Z,6.30
2022-12-18T18:17:05.252Z,18.80
2022-12-18T18:19:33.597Z,9.68
2022-12-18T18:22:01.721Z,5.78
2022-12-18T18:24:30.828Z,5.82
2022-12-18T18:27:00.151Z,5.80
2022-12-18T18:29:30.565Z,5.75
2022-12-18T18:31:58.982Z,5.53
2022-12-18T18:34:31.685Z,7.10
2022-12-18T18:37:01.488Z,5.38
2022-12-18T18:39:29.520Z,5.95
2022-12-18T18:41:57.030Z,5.22
2022-12-18T18:44:26.084Z,5.53
2022-12-18T18:46:55.572Z,5.63
2022-12-18T18:49:27.683Z,5.80
2022-12-18T18:51:57.489Z,5.90
2022-12-18T18:54:25.876Z,5.55
2022-12-18T18:59:40.510Z,5.50
2022-12-18T19:02:14.006Z,5.53
2022-12-18T19:04:45.895Z,5.80
2022-12-18T19:07:29.355Z,5.43
2022-12-18T19:10:03.855Z,5.85
2022-12-18T19:12:50.220Z,5.10
2022-12-18T19:15:17.639Z,5.50
2022-12-18T19:17:45.189Z,5.28
2022-12-18T19:20:15.211Z,5.60
2022-12-18T19:22:43.214Z,5.57
2022-12-18T19:25:12.114Z,5.40
2022-12-18T19:27:40.169Z,5.93
2022-12-18T19:30:08.340Z,5.68
2022-12-18T19:32:35.742Z,5.60
2022-12-18T19:35:03.172Z,5.93
2022-12-18T19:37:31.872Z,5.45
2022-12-18T19:39:59.179Z,5.53
2022-12-18T19:42:35.088Z,5.63
2022-12-18T19:45:02.972Z,5.88
2022-12-18T19:47:31.241Z,5.55
2022-12-18T19:49:58.573Z,5.10
2022-12-18T19:52:25.812Z,5.50
2022-12-18T19:54:53.769Z,5.93
2022-12-18T19:57:21.038Z,5.80
2022-12-18T19:59:48.248Z,6.15
2022-12-18T20:02:16.533Z,5.25
2022-12-18T20:04:43.896Z,6.13
2022-12-18T20:07:12.303Z,6.13
2022-12-18T20:09:39.563Z,7.00
2022-12-18T20:12:07.002Z,6.00
2022-12-18T20:14:34.438Z,6.10
2022-12-18T20:17:01.741Z,5.85
2022-12-18T20:19:29.175Z,6.35
2022-12-18T20:21:56.916Z,5.70
2022-12-18T20:24:24.196Z,6.05
2022-12-18T20:26:51.601Z,6.53
2022-12-18T20:29:18.868Z,5.70
2022-12-18T20:31:46.201Z,6.97
2022-12-18T20:34:13.803Z,6.50
2022-12-18T20:36:41.190Z,5.97
2022-12-18T20:39:10.893Z,6.22
2022-12-18T20:41:39.514Z,6.20
2022-12-18T20:44:21.586Z,5.93
2022-12-18T20:46:56.473Z,6.90
2022-12-18T20:49:26.441Z,6.75
2022-12-18T20:51:56.320Z,7.30
2022-12-18T20:54:25.606Z,6.93
2022-12-18T20:56:52.908Z,6.50
2022-12-18T20:59:20.564Z,6.45
2022-12-18T21:01:48.923Z,7.22
2022-12-18T21:04:19.306Z,6.70
2022-12-18T21:06:52.414Z,5.65
2022-12-18T21:09:23.590Z,7.25
2022-12-18T21:12:10.884Z,7.53
2022-12-18T21:14:42.930Z,8.65
2022-12-18T21:17:10.780Z,7.78
2022-12-18T21:19:38.191Z,8.40
2022-12-18T21:22:05.953Z,8.20
2022-12-18T21:24:33.882Z,8.00
2022-12-18T21:27:02.065Z,8.27
2022-12-18T21:29:29.545Z,8.60
2022-12-18T21:31:56.869Z,8.00
2022-12-18T21:34:27.765Z,7.75
2022-12-18T21:36:57.577Z,9.07
2022-12-18T21:39:25.859Z,9.30
2022-12-18T21:42:11.753Z,8.75
2022-12-18T21:44:42.267Z,8.07
2022-12-18T21:47:21.656Z,9.30
2022-12-18T21:49:51.592Z,9.82
2022-12-18T21:52:19.353Z,9.38
2022-12-18T21:54:47.309Z,9.07
2022-12-18T21:57:14.851Z,8.95
2022-12-18T21:59:43.727Z,9.38
2022-12-18T22:02:20.120Z,9.35
2022-12-18T22:04:48.282Z,10.10
2022-12-18T22:07:16.557Z,10.07
2022-12-18T22:09:43.963Z,10.32
2022-12-18T22:12:13.865Z,10.30
2022-12-18T22:14:41.051Z,7.50
2022-12-18T22:17:09.800Z,11.50
2022-12-18T22:19:42.881Z,10.30
2022-12-18T22:22:10.867Z,10.30
2022-12-18T22:24:38.374Z,10.57
2022-12-18T22:27:06.613Z,11.00
2022-12-18T22:29:52.649Z,11.07
2022-12-18T22:32:20.666Z,11.32
2022-12-18T22:35:08.296Z,10.85
2022-12-18T22:37:37.041Z,12.15
2022-12-18T22:40:07.295Z,11.27
2022-12-18T22:42:34.806Z,12.88
2022-12-18T22:45:02.228Z,11.70
2022-12-18T22:47:30.642Z,12.95
2022-12-18T22:49:58.526Z,11.50
2022-12-18T22:52:25.939Z,11.77
2022-12-18T22:54:54.256Z,12.18
2022-12-18T22:57:23.342Z,13.40
2022-12-18T22:59:51.732Z,12.98
2022-12-18T23:02:19.561Z,13.13
2022-12-18T23:04:50.506Z,13.25
2022-12-18T23:07:18.365Z,13.30
2022-12-18T23:09:45.643Z,14.57
2022-12-18T23:12:16.851Z,13.82
2022-12-18T23:14:44.525Z,14.85
2022-12-18T23:17:11.733Z,14.32
2022-12-18T23:19:42.816Z,14.00
2022-12-18T23:22:12.919Z,14.52
2022-12-18T23:24:40.627Z,15.15
2022-12-18T23:27:11.526Z,15.32
2022-12-18T23:29:40.680Z,15.27
2022-12-18T23:32:08.492Z,16.30
2022-12-18T23:34:35.780Z,15.57
2022-12-18T23:37:03.987Z,15.65
2022-12-18T23:39:31.462Z,17.92
2022-12-18T23:41:59.453Z,17.27
2022-12-18T23:44:27.216Z,17.02
2022-12-18T23:46:54.921Z,16.85
2022-12-18T23:49:22.622Z,16.42
2022-12-18T23:51:50.055Z,18.05
2022-12-18T23:54:17.377Z,15.93
2022-12-18T23:56:49.822Z,18.08
2022-12-18T23:59:19.369Z,17.45
